Time;durP1;ratioP1;P1;durP2;ratioP2;P2;SDS_P1;SDS_P2;PMS_P1;PMS_P2;Temp;Humidity;BMP_temperature;BMP_pressure;BME280_temperature;BME280_humidity;BME280_pressure;Samples;Min_cycle;Max_cycle;Signal;HPM_P1;HPM_P2
2022/08/16 00:04:29;;;;;;;3.72;2.20;;;14.00;99.90;;;;;;20510495;28;20050;-50
2022/08/16 00:14:32;;;;;;;6.40;4.30;;;13.90;99.90;;;;;;20512223;28;20102;-49
2022/08/16 00:24:35;;;;;;;7.22;5.15;;;13.90;99.90;;;;;;20495644;29;20118;-51
2022/08/16 00:34:38;;;;;;;8.50;5.63;;;14.00;99.90;;;;;;20495030;29;20492;-52
2022/08/16 00:44:49;;;;;;;5.68;5.07;;;13.80;99.90;;;;;;20494328;29;20039;-53
2022/08/16 00:54:51;;;;;;;4.90;4.40;;;13.60;99.90;;;;;;20509647;29;20035;-49
2022/08/16 01:04:54;;;;;;;5.47;3.75;;;13.50;99.90;;;;;;20492659;29;20039;-50
2022/08/16 01:14:59;;;;;;;4.80;4.00;;;13.40;99.90;;;;;;20490981;28;20051;-51
2022/08/16 01:25:12;;;;;;;4.55;3.72;;;13.60;99.90;;;;;;20475621;29;20066;-49
2022/08/16 01:35:20;;;;;;;7.57;5.07;;;13.60;99.90;;;;;;20474679;29;20086;-52
2022/08/16 01:45:23;;;;;;;4.85;4.18;;;13.50;99.90;;;;;;20505792;29;20031;-50
2022/08/16 01:55:26;;;;;;;3.70;3.22;;;13.30;99.90;;;;;;20417234;29;20048;-52
2022/08/16 02:05:31;;;;;;;4.18;2.78;;;13.20;99.90;;;;;;20400884;29;20114;-50
2022/08/16 02:15:39;;;;;;;2.70;1.98;;;13.10;99.90;;;;;;20384424;29;20048;-63
2022/08/16 02:25:44;;;;;;;3.83;2.42;;;13.20;99.90;;;;;;20399315;29;20048;-51
2022/08/16 02:35:47;;;;;;;5.03;2.40;;;13.10;99.90;;;;;;20445851;29;20469;-49
2022/08/16 02:45:49;;;;;;;3.08;2.10;;;12.90;99.90;;;;;;20485257;29;20646;-49
2022/08/16 02:55:52;;;;;;;2.55;1.88;;;13.00;99.90;;;;;;20500478;29;20378;-64
2022/08/16 03:05:55;;;;;;;2.15;1.73;;;13.00;99.90;;;;;;20468348;29;20042;-50
2022/08/16 03:16:00;;;;;;;3.67;1.83;;;13.00;99.90;;;;;;20483250;28;20508;-64
2022/08/16 03:26:03;;;;;;;3.95;2.28;;;12.80;99.90;;;;;;20466800;29;20074;-53
2022/08/16 03:36:07;;;;;;;2.58;2.00;;;12.80;99.90;;;;;;20481842;29;20035;-64
2022/08/16 03:46:14;;;;;;;3.92;2.60;;;12.60;99.90;;;;;;20497692;29;20102;-49
2022/08/16 03:56:18;;;;;;;3.05;2.70;;;12.60;99.90;;;;;;20481775;29;20043;-57
2022/08/16 04:06:20;;;;;;;5.53;2.95;;;12.90;99.90;;;;;;20497422;29;20469;-48
2022/08/16 04:16:25;;;;;;;3.50;2.85;;;13.10;99.90;;;;;;20497153;29;20074;-50
2022/08/16 04:26:30;;;;;;;3.72;2.63;;;12.70;99.90;;;;;;20496626;29;20055;-50
2022/08/16 04:36:32;;;;;;;3.80;2.70;;;12.90;99.90;;;;;;20496259;29;20035;-64
2022/08/16 04:46:35;;;;;;;5.03;2.92;;;13.70;99.90;;;;;;20485073;28;20596;-50
2022/08/16 04:56:40;;;;;;;3.55;3.25;;;14.30;99.90;;;;;;20493526;29;20035;-53
2022/08/16 05:06:42;;;;;;;3.65;3.33;;;14.30;99.90;;;;;;20476933;29;20031;-52
2022/08/16 05:16:46;;;;;;;5.60;3.40;;;13.90;99.90;;;;;;20476323;29;20059;-48
2022/08/16 05:26:49;;;;;;;3.90;3.50;;;13.80;99.90;;;;;;20491245;29;20492;-61
2022/08/16 05:36:56;;;;;;;5.43;3.40;;;13.70;99.90;;;;;;20474875;29;20097;-49
2022/08/16 05:47:05;;;;;;;5.90;4.70;;;13.90;99.90;;;;;;20411613;29;20095;-63
2022/08/16 05:57:09;;;;;;;3.92;3.53;;;14.10;99.90;;;;;;20504706;28;20090;-61
2022/08/16 06:07:13;;;;;;;9.73;3.15;;;14.00;99.90;;;;;;20409187;29;20039;-53
2022/08/16 06:17:21;;;;;;;3.60;3.25;;;14.30;99.90;;;;;;20424452;29;20060;-51
2022/08/16 06:27:24;;;;;;;3.28;2.50;;;14.30;99.90;;;;;;20486778;29;20039;-48
2022/08/16 06:37:27;;;;;;;3.53;1.50;;;14.30;99.90;;;;;;20485534;29;20035;-66
2022/08/16 06:47:29;;;;;;;2.50;1.50;;;16.80;99.90;;;;;;20483123;29;20082;-51
2022/08/16 06:57:32;;;;;;;1.38;1.27;;;19.70;99.90;;;;;;20485404;29;20031;-49
2022/08/16 07:07:35;;;;;;;1.40;1.20;;;21.30;99.90;;;;;;20482936;28;20066;-54
2022/08/16 07:17:39;;;;;;;1.52;1.42;;;22.50;99.90;;;;;;20483100;29;20113;-52
2022/08/16 07:27:41;;;;;;;1.20;1.10;;;23.30;97.00;;;;;;20403481;29;20095;-65
2022/08/16 07:37:47;;;;;;;1.23;0.90;;;23.80;95.30;;;;;;20463990;29;20492;-65
2022/08/16 07:47:56;;;;;;;1.60;1.20;;;23.80;94.80;;;;;;20403022;29;20194;-52
2022/08/16 07:58:00;;;;;;;1.60;1.40;;;23.70;94.00;;;;;;20488875;29;20428;-53
2022/08/16 08:08:04;;;;;;;2.80;2.53;;;23.40;96.20;;;;;;20484609;29;20039;-51
2022/08/16 08:18:08;;;;;;;3.30;1.70;;;23.60;96.00;;;;;;20482497;28;20424;-54
2022/08/16 08:28:14;;;;;;;3.78;2.05;;;23.80;97.80;;;;;;20511436;29;20035;-52
2022/08/16 08:38:22;;;;;;;3.40;2.28;;;24.40;96.40;;;;;;20495710;29;20086;-66
2022/08/16 08:48:25;;;;;;;3.33;2.28;;;24.80;96.10;;;;;;20493856;29;20043;-53
2022/08/16 08:58:28;;;;;;;3.75;2.65;;;24.90;96.90;;;;;;20509063;29;20031;-53
2022/08/16 09:08:51;;;;;;;3.05;2.50;;;24.90;96.30;;;;;;20508384;29;20070;-66
2022/08/16 09:18:55;;;;;;;4.60;2.90;;;24.10;96.70;;;;;;20491667;29;20114;-60
2022/08/16 09:28:59;;;;;;;3.83;3.22;;;24.10;96.30;;;;;;20506420;28;20043;-64
2022/08/16 09:39:02;;;;;;;4.75;4.35;;;24.30;99.90;;;;;;20474638;29;20031;-65
2022/08/16 09:49:05;;;;;;;5.38;3.47;;;24.50;96.90;;;;;;20489241;29;20039;-54
2022/08/16 09:59:10;;;;;;;3.90;3.35;;;24.80;97.30;;;;;;20472908;29;20039;-54
2022/08/16 10:09:14;;;;;;;4.60;3.60;;;25.50;98.00;;;;;;20503693;29;20090;-64
2022/08/16 10:19:17;;;;;;;5.22;4.20;;;25.50;97.00;;;;;;20502662;29;20456;-53
2022/08/16 10:29:21;;;;;;;5.20;4.28;;;25.50;96.30;;;;;;20470746;29;20039;-53
2022/08/16 10:39:23;;;;;;;6.75;6.15;;;25.30;97.60;;;;;;20501046;29;20106;-51
2022/08/16 10:49:26;;;;;;;6.45;5.80;;;25.40;98.50;;;;;;20508191;28;20098;-64
2022/08/16 10:59:30;;;;;;;9.68;7.20;;;25.50;97.60;;;;;;20500074;29;20099;-49
2022/08/16 11:09:33;;;;;;;8.95;8.05;;;24.80;98.40;;;;;;20499491;29;20508;-64
2022/08/16 11:19:35;;;;;;;8.98;8.13;;;25.30;99.40;;;;;;20483044;29;20059;-54
2022/08/16 11:29:39;;;;;;;9.85;7.43;;;26.30;98.00;;;;;;20498782;29;20179;-51
2022/08/16 11:39:42;;;;;;;6.68;6.00;;;25.20;98.00;;;;;;20376030;29;20098;-52
2022/08/16 11:49:45;;;;;;;6.65;5.35;;;25.50;98.90;;;;;;20350060;29;20047;-51
2022/08/16 11:59:47;;;;;;;6.50;5.85;;;25.30;97.10;;;;;;20339411;29;20044;-50
2022/08/16 12:09:52;;;;;;;6.85;5.38;;;26.20;98.20;;;;;;20331186;29;20076;-64
2022/08/16 12:19:54;;;;;;;5.90;5.13;;;27.70;96.30;;;;;;20415843;29;20047;-53
2022/08/16 12:30:00;;;;;;;6.68;5.05;;;27.20;97.90;;;;;;20496003;29;20110;-52
2022/08/16 12:40:05;;;;;;;5.82;5.22;;;26.90;95.40;;;;;;20510875;29;20393;-53
2022/08/16 12:50:08;;;;;;;5.72;4.85;;;27.20;96.90;;;;;;20509879;29;20055;-52
2022/08/16 13:00:15;;;;;;;5.15;4.45;;;26.80;95.60;;;;;;20491033;29;20094;-53
2022/08/16 13:10:20;;;;;;;5.73;4.73;;;27.50;94.70;;;;;;20491528;28;20035;-48
2022/08/16 13:20:27;;;;;;;7.68;4.80;;;26.40;94.50;;;;;;20412168;29;20138;-65
2022/08/16 13:30:33;;;;;;;;;;;25.00;98.20;;;;;;20493442;29;20065;-48
2022/08/16 13:40:35;;;;;;;7.28;4.38;;;24.80;94.50;;;;;;20474113;29;19969;-54
2022/08/16 13:50:38;;;;;;;5.20;4.00;;;24.00;99.90;;;;;;20441283;29;20477;-64
2022/08/16 14:00:40;;;;;;;8.50;4.13;;;24.20;96.60;;;;;;20503684;29;20559;-64
2022/08/16 14:10:43;;;;;;;6.78;4.25;;;23.90;96.80;;;;;;20487992;29;20066;-64
2022/08/16 14:20:45;;;;;;;5.43;3.92;;;24.50;96.00;;;;;;20502742;28;20129;-48
2022/08/16 14:30:49;;;;;;;4.55;4.03;;;24.40;97.20;;;;;;20470987;29;20035;-65
2022/08/16 14:40:52;;;;;;;6.70;3.22;;;24.90;94.70;;;;;;20470215;29;20031;-64
2022/08/16 14:50:54;;;;;;;4.72;2.83;;;25.40;95.70;;;;;;20484718;29;20094;-55
2022/08/16 15:01:00;;;;;;;3.80;3.30;;;26.10;94.40;;;;;;20516224;28;20047;-53
2022/08/16 15:11:04;;;;;;;4.05;2.60;;;25.40;93.80;;;;;;20483720;29;20035;-52
2022/08/16 15:21:06;;;;;;;4.18;3.13;;;25.00;94.60;;;;;;20467390;29;20043;-49
2022/08/16 15:31:10;;;;;;;6.63;3.55;;;25.10;94.50;;;;;;20498028;28;20039;-64
2022/08/16 15:41:38;;;;;;;4.18;2.90;;;25.10;93.90;;;;;;20482346;29;20031;-64
2022/08/16 15:51:42;;;;;;;4.25;3.20;;;25.00;93.90;;;;;;20481577;29;20035;-50
2022/08/16 16:01:44;;;;;;;6.78;4.50;;;24.80;93.70;;;;;;20513673;28;20070;-48
2022/08/16 16:11:47;;;;;;;5.55;4.28;;;23.30;95.00;;;;;;20496743;28;20043;-51
2022/08/16 16:21:50;;;;;;;4.72;4.05;;;22.90;95.70;;;;;;20464849;29;20051;-63
2022/08/16 16:31:53;;;;;;;6.35;4.53;;;22.50;96.70;;;;;;20479819;29;20031;-50
2022/08/16 16:41:57;;;;;;;7.55;5.28;;;21.20;98.40;;;;;;20485981;28;20098;-62
2022/08/16 16:52:00;;;;;;;7.47;5.47;;;20.10;99.90;;;;;;20493689;29;20506;-63
2022/08/16 17:02:03;;;;;;;6.43;5.68;;;19.10;99.90;;;;;;20509632;29;20094;-49
2022/08/16 17:12:05;;;;;;;7.28;5.53;;;18.40;99.90;;;;;;20492532;28;20051;-48
2022/08/16 17:22:13;;;;;;;10.75;6.03;;;18.00;99.90;;;;;;20476444;29;20035;-50
2022/08/16 17:32:17;;;;;;;8.82;5.90;;;17.60;99.90;;;;;;20507175;29;20043;-51
2022/08/16 17:42:21;;;;;;;8.05;5.75;;;17.30;99.90;;;;;;20492785;29;20043;-63
2022/08/16 17:52:27;;;;;;;10.65;6.65;;;17.00;99.90;;;;;;20504927;28;20031;-63
2022/08/16 18:02:30;;;;;;;8.85;7.57;;;16.90;99.90;;;;;;20521045;28;20393;-63
2022/08/16 18:12:33;;;;;;;9.57;7.50;;;16.50;99.90;;;;;;20487914;28;20051;-63
2022/08/16 18:22:36;;;;;;;10.32;8.10;;;16.20;99.90;;;;;;20503220;29;20047;-47
2022/08/16 18:32:47;;;;;;;14.98;9.45;;;16.10;99.90;;;;;;20486492;29;20362;-49
2022/08/16 18:42:52;;;;;;;11.75;9.52;;;15.90;99.90;;;;;;20485822;29;20094;-48
2022/08/16 18:53:00;;;;;;;10.88;9.48;;;15.70;99.90;;;;;;20485042;29;20043;-47
2022/08/16 19:03:17;;;;;;;15.35;10.60;;;15.50;99.90;;;;;;20499487;28;20064;-48
2022/08/16 19:13:24;;;;;;;14.63;10.88;;;15.40;99.90;;;;;;20483534;28;20098;-51
2022/08/16 19:23:32;;;;;;;13.82;10.98;;;15.30;99.90;;;;;;20467330;29;20142;-49
2022/08/16 19:33:36;;;;;;;14.75;10.60;;;15.20;99.90;;;;;;20466696;29;20039;-51
2022/08/16 19:43:40;;;;;;;16.88;12.68;;;15.20;99.90;;;;;;20494517;29;20094;-48
2022/08/16 19:53:43;;;;;;;14.68;11.48;;;15.10;99.90;;;;;;20481628;29;20036;-50
2022/08/16 20:03:45;;;;;;;15.85;11.75;;;15.00;99.90;;;;;;20481444;29;20039;-64
2022/08/16 20:13:48;;;;;;;18.70;11.93;;;14.90;99.90;;;;;;20481139;28;20123;-51
2022/08/16 20:23:50;;;;;;;14.35;11.45;;;14.90;99.90;;;;;;20495196;29;20050;-64
2022/08/16 20:33:53;;;;;;;13.88;11.00;;;14.80;99.90;;;;;;20410914;29;20048;-64
2022/08/16 20:43:56;;;;;;;14.50;10.05;;;14.80;99.90;;;;;;20426511;29;20497;-63
2022/08/16 20:53:59;;;;;;;13.73;11.02;;;14.60;99.90;;;;;;20383268;29;20055;-59
2022/08/16 21:04:01;;;;;;;13.43;10.93;;;14.60;99.90;;;;;;20390301;28;20051;-59
2022/08/16 21:14:04;;;;;;;10.52;8.15;;;14.70;99.90;;;;;;20375262;29;20047;-57
2022/08/16 21:24:09;;;;;;;12.43;9.32;;;15.20;99.90;;;;;;20397216;29;20047;-64
2022/08/16 21:34:12;;;;;;;14.05;9.50;;;15.20;99.90;;;;;;20400479;29;20166;-57
2022/08/16 21:44:15;;;;;;;14.60;9.80;;;15.20;99.90;;;;;;20399411;29;20048;-66
2022/08/16 21:54:17;;;;;;;11.50;8.98;;;15.10;99.90;;;;;;20441598;29;20492;-59
2022/08/16 22:04:21;;;;;;;15.48;12.32;;;14.80;99.90;;;;;;20484807;29;20449;-62
2022/08/16 22:14:26;;;;;;;17.65;12.07;;;14.50;99.90;;;;;;20455302;28;20083;-49
2022/08/16 22:24:29;;;;;;;17.15;12.90;;;14.40;99.90;;;;;;20487229;29;20038;-48
2022/08/16 22:34:32;;;;;;;19.88;15.07;;;14.20;99.90;;;;;;20486422;29;20031;-63
2022/08/16 22:44:36;;;;;;;22.48;15.70;;;14.10;99.90;;;;;;20485763;29;20071;-49
2022/08/16 22:54:40;;;;;;;23.50;16.20;;;14.20;99.90;;;;;;20485194;29;20031;-47
2022/08/16 23:04:43;;;;;;;26.27;17.55;;;14.20;99.90;;;;;;20484525;29;20343;-48
2022/08/16 23:14:46;;;;;;;26.33;18.85;;;14.30;99.90;;;;;;20468036;28;20045;-47
2022/08/16 23:24:48;;;;;;;26.98;19.17;;;14.40;99.90;;;;;;20483565;29;20039;-63
2022/08/16 23:34:51;;;;;;;23.15;16.45;;;14.30;99.90;;;;;;20482608;29;20035;-49
2022/08/16 23:44:54;;;;;;;25.23;17.20;;;14.30;99.90;;;;;;20482545;29;20039;-48
2022/08/16 23:54:57;;;;;;;23.02;15.68;;;14.40;99.90;;;;;;20493712;28;20564;-50
